Time;durP1;ratioP1;P1;durP2;ratioP2;P2;SDS_P1;SDS_P2;PMS_P1;PMS_P2;Temp;Humidity;BMP_temperature;BMP_pressure;BME280_temperature;BME280_humidity;BME280_pressure;Samples;Min_cycle;Max_cycle;Signal;HPM_P1;HPM_P2
2021/10/08 00:02:19;;;;;;;6.63;4.28;;;;;;;10.58;68.82;98366.88;4991219;28;20030;-84
2021/10/08 00:04:45;;;;;;;7.75;4.88;;;;;;;10.65;69.80;98370.22;4997493;28;20030;-83
2021/10/08 00:07:10;;;;;;;7.38;3.75;;;;;;;10.71;68.99;98370.34;4948791;28;20030;-82
2021/10/08 00:09:36;;;;;;;6.80;4.82;;;;;;;10.58;68.37;98366.88;4993404;28;20033;-82
2021/10/08 00:12:02;;;;;;;5.43;4.07;;;;;;;10.58;68.30;98366.09;5016242;28;20042;-83
2021/10/08 00:14:28;;;;;;;4.93;3.65;;;;;;;10.59;68.62;98376.28;4999726;28;20037;-82
2021/10/08 00:16:54;;;;;;;4.50;3.10;;;;;;;10.59;68.21;98372.88;5016163;28;20073;-82
2021/10/08 00:19:19;;;;;;;11.65;6.43;;;;;;;10.54;68.86;98370.13;4980369;28;20035;-82
2021/10/08 00:21:45;;;;;;;13.05;8.02;;;;;;;10.58;68.92;98374.69;4980926;28;20474;-82
2021/10/08 00:24:10;;;;;;;18.30;11.70;;;;;;;10.61;69.23;98376.88;4970703;28;20030;-82
2021/10/08 00:26:40;;;;;;;22.23;13.98;;;;;;;10.62;69.17;98375.06;4980132;28;20117;-82
2021/10/08 00:29:08;;;;;;;22.15;12.80;;;;;;;10.63;69.07;98376.66;5000287;28;20030;-82
2021/10/08 00:31:34;;;;;;;20.23;12.95;;;;;;;10.63;69.20;98379.25;4999941;28;20029;-82
2021/10/08 00:33:59;;;;;;;15.20;9.88;;;;;;;10.66;68.96;98381.44;4999319;28;20761;-83
2021/10/08 00:36:24;;;;;;;11.18;6.93;;;;;;;10.65;69.34;98383.22;4980628;28;20122;-83
2021/10/08 00:38:52;;;;;;;9.07;6.45;;;;;;;10.74;69.20;98375.94;4980565;28;20022;-83
2021/10/08 00:41:18;;;;;;;9.10;6.63;;;;;;;10.78;69.03;98379.72;4981152;28;20041;-84
2021/10/08 00:43:43;;;;;;;9.27;6.28;;;;;;;10.78;69.35;98382.31;4965230;28;20026;-84
2021/10/08 00:46:08;;;;;;;9.75;6.90;;;;;;;10.76;68.75;98373.13;5016377;28;20085;-84
2021/10/08 00:48:34;;;;;;;9.05;5.43;;;;;;;10.76;68.74;98367.91;4983617;28;20047;-84
2021/10/08 00:50:59;;;;;;;8.50;4.78;;;;;;;10.66;68.09;98374.41;4999895;28;20045;-83
2021/10/08 00:53:24;;;;;;;6.18;3.90;;;;;;;10.58;68.43;98379.91;4982304;28;20524;-84
2021/10/08 00:55:51;;;;;;;6.00;3.55;;;;;;;10.52;68.87;98379.94;5002693;28;20048;-83
2021/10/08 00:58:20;;;;;;;5.65;3.92;;;;;;;10.49;68.69;98373.38;5003356;28;20037;-84
2021/10/08 01:00:50;;;;;;;5.47;3.83;;;;;;;10.48;68.85;98371.78;4977582;28;20033;-82
2021/10/08 01:03:17;;;;;;;7.07;4.47;;;;;;;10.47;68.87;98375.41;4970845;28;20042;-82
2021/10/08 01:05:42;;;;;;;7.43;4.07;;;;;;;10.47;69.17;98370.19;4997575;28;20021;-82
2021/10/08 01:08:09;;;;;;;7.32;4.55;;;;;;;10.49;68.79;98371.56;5016028;28;20044;-83
2021/10/08 01:10:37;;;;;;;6.50;3.72;;;;;;;10.42;68.91;98373.44;4999584;28;20462;-83
2021/10/08 01:13:05;;;;;;;6.15;4.00;;;;;;;10.47;69.21;98370.19;4982631;28;20034;-82
2021/10/08 01:15:31;;;;;;;8.90;4.80;;;;;;;10.54;69.26;98357.09;4999382;28;20557;-82
2021/10/08 01:17:56;;;;;;;6.85;3.88;;;;;;;10.56;68.80;98363.69;4965629;28;20022;-82
2021/10/08 01:20:23;;;;;;;6.15;3.67;;;;;;;10.52;69.19;98351.31;4980153;28;20065;-83
2021/10/08 01:22:48;;;;;;;7.10;4.20;;;;;;;10.57;69.26;98356.66;4979779;28;20402;-83
2021/10/08 01:25:14;;;;;;;6.63;4.22;;;;;;;10.59;69.26;98358.06;4979327;28;20034;-83
2021/10/08 01:27:43;;;;;;;6.68;4.20;;;;;;;10.51;69.88;98360.16;4995625;28;20058;-84
2021/10/08 01:30:09;;;;;;;8.15;4.32;;;;;;;10.70;69.88;98359.16;4978777;28;20045;-83
2021/10/08 01:32:35;;;;;;;9.30;5.43;;;;;;;10.80;70.00;98361.28;4963468;28;20122;-83
2021/10/08 01:35:02;;;;;;;7.85;5.57;;;;;;;10.86;69.87;98357.78;5010597;28;20026;-83
2021/10/08 01:37:27;;;;;;;7.00;4.93;;;;;;;10.90;69.69;98352.94;4998411;28;20030;-83
2021/10/08 01:39:53;;;;;;;9.60;5.68;;;;;;;10.96;69.32;98350.25;4982107;28;20096;-83
2021/10/08 01:42:18;;;;;;;7.80;4.78;;;;;;;11.01;69.50;98353.00;4998415;28;20037;-82
2021/10/08 01:44:44;;;;;;;7.25;4.55;;;;;;;11.02;69.17;98357.22;4998897;28;20446;-83
2021/10/08 01:47:09;;;;;;;6.65;4.30;;;;;;;11.01;69.44;98355.63;4982063;28;20057;-83
2021/10/08 01:49:35;;;;;;;7.72;4.85;;;;;;;11.02;69.24;98357.22;4998794;28;20382;-82
2021/10/08 01:52:01;;;;;;;7.05;4.45;;;;;;;10.98;69.00;98361.25;4998488;28;20033;-82
2021/10/08 01:54:26;;;;;;;7.00;4.72;;;;;;;10.92;68.58;98356.13;4982094;28;20025;-82
2021/10/08 01:56:52;;;;;;;7.10;4.25;;;;;;;10.86;68.43;98352.56;4998771;28;20476;-82
2021/10/08 01:59:18;;;;;;;7.63;3.88;;;;;;;10.84;68.67;98350.19;5014037;28;20029;-81
2021/10/08 02:01:44;;;;;;;5.00;3.90;;;;;;;10.76;68.78;98353.09;5013977;28;20026;-82
2021/10/08 02:04:09;;;;;;;9.20;4.88;;;;;;;10.69;69.02;98347.13;4980670;28;20397;-82
2021/10/08 02:06:35;;;;;;;6.72;4.55;;;;;;;10.75;68.70;98351.50;5000705;28;20025;-82
2021/10/08 02:09:01;;;;;;;7.38;3.80;;;;;;;10.68;68.92;98345.56;4990731;28;20041;-83
2021/10/08 02:11:26;;;;;;;8.38;4.32;;;;;;;10.71;68.99;98352.94;5014067;28;20124;-84
2021/10/08 02:13:51;;;;;;;7.47;4.50;;;;;;;10.70;69.20;98347.94;4997349;28;20069;-83
2021/10/08 02:16:20;;;;;;;8.30;4.90;;;;;;;10.68;69.54;98345.56;4980775;28;20030;-83
2021/10/08 02:18:46;;;;;;;7.55;4.85;;;;;;;10.70;69.43;98345.34;4981917;28;20030;-82
2021/10/08 02:21:12;;;;;;;8.27;5.22;;;;;;;10.69;69.32;98347.13;4981138;28;20034;-84
2021/10/08 02:23:37;;;;;;;9.93;5.53;;;;;;;10.71;69.96;98339.09;4997573;28;20112;-83
2021/10/08 02:26:02;;;;;;;11.45;5.60;;;;;;;10.75;69.81;98343.66;4990107;28;20073;-82
2021/10/08 02:28:28;;;;;;;11.18;6.18;;;;;;;10.75;69.49;98342.88;4998059;28;20133;-82
2021/10/08 02:30:53;;;;;;;9.43;6.00;;;;;;;10.66;69.92;98337.94;4998162;28;20545;-83
2021/10/08 02:33:18;;;;;;;9.98;5.75;;;;;;;10.65;69.69;98341.56;4997927;28;20088;-82
2021/10/08 02:35:44;;;;;;;9.10;5.68;;;;;;;10.58;69.21;98335.63;5014152;28;20659;-82
2021/10/08 02:38:09;;;;;;;9.48;5.70;;;;;;;10.51;69.66;98337.50;4981375;28;20026;-82
2021/10/08 02:40:35;;;;;;;9.45;5.43;;;;;;;10.46;69.40;98338.13;4981413;28;20057;-82
2021/10/08 02:43:01;;;;;;;9.55;5.00;;;;;;;10.50;70.10;98338.50;4997297;28;20524;-82
2021/10/08 02:45:26;;;;;;;11.13;6.45;;;;;;;10.44;70.04;98334.94;4980715;28;20029;-81
2021/10/08 02:47:52;;;;;;;9.75;6.15;;;;;;;10.52;69.78;98338.28;4973896;28;20092;-82
2021/10/08 02:50:17;;;;;;;11.80;6.25;;;;;;;10.48;69.69;98335.31;5021694;28;20070;-82
2021/10/08 02:52:43;;;;;;;11.82;6.60;;;;;;;10.48;70.10;98341.31;4961151;28;20037;-83
2021/10/08 02:55:08;;;;;;;13.85;7.25;;;;;;;10.52;70.42;98336.50;4993314;28;20437;-83
2021/10/08 02:57:37;;;;;;;12.52;7.75;;;;;;;10.46;69.97;98325.13;4977637;28;20034;-82
2021/10/08 03:00:05;;;;;;;15.70;7.78;;;;;;;10.56;69.87;98337.66;4963726;28;20632;-82
2021/10/08 03:02:30;;;;;;;14.70;8.07;;;;;;;10.63;70.11;98319.34;4976958;28;20065;-83
2021/10/08 03:04:55;;;;;;;14.30;8.15;;;;;;;10.68;69.91;98320.28;4982808;28;20065;-82
2021/10/08 03:07:21;;;;;;;15.80;8.38;;;;;;;10.70;69.87;98322.69;4997041;28;20061;-83
2021/10/08 03:09:46;;;;;;;16.33;8.98;;;;;;;10.66;70.05;98327.53;5013101;28;20033;-83
2021/10/08 03:12:12;;;;;;;15.10;8.30;;;;;;;10.66;69.92;98327.53;4997080;28;20049;-83
2021/10/08 03:14:37;;;;;;;13.30;7.32;;;;;;;10.69;69.73;98331.50;5013589;28;20033;-83
2021/10/08 03:17:02;;;;;;;14.38;7.65;;;;;;;10.64;69.54;98332.16;5017835;28;20562;-82
2021/10/08 03:19:28;;;;;;;13.65;7.88;;;;;;;10.62;70.03;98334.16;5019943;28;20117;-82
2021/10/08 03:21:53;;;;;;;17.00;7.43;;;;;;;10.60;69.56;98336.19;5003578;28;20033;-82
2021/10/08 03:24:18;;;;;;;15.07;7.80;;;;;;;10.57;69.78;98338.44;5018913;28;20119;-81
2021/10/08 03:26:44;;;;;;;13.75;8.15;;;;;;;10.53;69.88;98338.06;5019695;28;20049;-82
2021/10/08 03:29:09;;;;;;;16.30;8.35;;;;;;;10.57;69.93;98339.22;5003462;28;20109;-82
2021/10/08 03:31:35;;;;;;;15.35;8.77;;;;;;;10.59;70.26;98339.84;4986987;28;20033;-82
2021/10/08 03:34:02;;;;;;;16.00;8.93;;;;;;;10.61;70.02;98335.19;5001928;28;20030;-82
2021/10/08 03:36:38;;;;;;;17.40;8.68;;;;;;;10.59;70.41;98337.22;4970498;28;20092;-83
2021/10/08 03:39:05;;;;;;;16.83;8.95;;;;;;;10.65;70.24;98345.97;5019727;28;20032;-82
2021/10/08 03:41:31;;;;;;;16.35;8.35;;;;;;;10.70;70.33;98345.34;5003933;28;20441;-83
2021/10/08 03:43:56;;;;;;;16.20;8.85;;;;;;;10.71;70.18;98349.53;5019365;28;20026;-84
2021/10/08 03:46:25;;;;;;;14.40;8.88;;;;;;;10.70;69.86;98345.34;5018868;28;20520;-83
2021/10/08 03:51:31;;;;;;;16.63;8.85;;;;;;;10.71;70.11;98347.72;5019349;28;20317;-83
2021/10/08 03:53:57;;;;;;;16.35;9.60;;;;;;;10.71;69.89;98346.91;5018849;28;20118;-83
2021/10/08 03:56:23;;;;;;;18.50;9.70;;;;;;;10.68;70.20;98346.34;4986331;28;20118;-83
2021/10/08 03:58:48;;;;;;;19.15;9.70;;;;;;;10.71;70.30;98354.72;4986183;28;20034;-82
2021/10/08 04:01:14;;;;;;;19.13;9.35;;;;;;;10.66;70.67;98345.75;5002384;28;20032;-82
2021/10/08 04:03:39;;;;;;;16.58;8.98;;;;;;;10.65;70.36;98346.75;5001891;28;20561;-82
2021/10/08 04:06:04;;;;;;;18.67;8.95;;;;;;;10.71;70.01;98350.34;4985749;28;20034;-83
2021/10/08 04:08:30;;;;;;;18.00;9.50;;;;;;;10.70;70.32;98342.75;4982725;28;20130;-82
2021/10/08 04:10:55;;;;;;;21.40;10.70;;;;;;;10.74;69.96;98344.66;4983693;28;20042;-82
2021/10/08 04:13:20;;;;;;;16.70;8.90;;;;;;;10.74;69.63;98349.09;4983244;28;20045;-82
2021/10/08 04:15:46;;;;;;;20.30;10.75;;;;;;;10.70;69.82;98351.34;4999262;28;20109;-82
2021/10/08 04:18:11;;;;;;;18.58;8.85;;;;;;;10.63;69.44;98350.63;4983012;28;20375;-82
2021/10/08 04:20:38;;;;;;;19.70;9.18;;;;;;;10.61;69.67;98345.63;4967147;28;20088;-82
2021/10/08 04:23:03;;;;;;;16.85;8.73;;;;;;;10.62;69.65;98357.59;4999652;28;20037;-82
2021/10/08 04:25:29;;;;;;;14.65;8.20;;;;;;;10.57;69.75;98362.66;4999298;28;20031;-82
2021/10/08 04:27:54;;;;;;;17.58;9.85;;;;;;;10.57;69.69;98360.06;4986807;28;20041;-82
2021/10/08 04:30:19;;;;;;;15.43;8.10;;;;;;;10.49;70.18;98353.34;4995778;28;20042;-83
2021/10/08 04:32:45;;;;;;;16.83;8.38;;;;;;;10.47;70.20;98360.56;4978990;28;20030;-83
2021/10/08 04:35:10;;;;;;;18.20;8.82;;;;;;;10.54;70.05;98370.94;4998730;28;20081;-83
2021/10/08 04:37:36;;;;;;;17.85;9.38;;;;;;;10.50;69.80;98351.53;4982896;28;20351;-82
2021/10/08 04:40:06;;;;;;;15.27;8.25;;;;;;;10.44;69.62;98355.78;4999906;28;20108;-82
2021/10/08 04:42:31;;;;;;;16.35;8.90;;;;;;;10.47;69.94;98360.56;4999105;28;20421;-83
2021/10/08 04:44:57;;;;;;;17.88;9.32;;;;;;;10.38;70.26;98363.66;4983014;28;20033;-82
2021/10/08 04:47:22;;;;;;;17.40;9.13;;;;;;;10.41;69.90;98366.63;4995344;28;20042;-82
2021/10/08 04:49:48;;;;;;;17.83;8.70;;;;;;;10.43;69.80;98369.00;4979725;28;20027;-82
2021/10/08 04:52:13;;;;;;;16.25;8.50;;;;;;;10.41;69.87;98371.03;4979742;28;20026;-82
2021/10/08 04:54:39;;;;;;;16.30;8.30;;;;;;;10.39;70.07;98368.66;4980045;28;20029;-82
2021/10/08 04:57:05;;;;;;;17.00;8.10;;;;;;;10.34;70.08;98360.69;4990930;28;20021;-82
2021/10/08 04:59:30;;;;;;;14.77;8.48;;;;;;;10.36;70.32;98363.84;5018354;28;20022;-80
2021/10/08 05:01:56;;;;;;;16.83;10.13;;;;;;;10.41;69.64;98371.03;5008882;28;20030;-82
2021/10/08 05:04:21;;;;;;;15.48;8.88;;;;;;;10.37;70.19;98373.28;4965507;28;20041;-81
2021/10/08 05:06:47;;;;;;;15.20;8.70;;;;;;;10.39;69.90;98367.84;4989197;28;20110;-82
2021/10/08 05:09:12;;;;;;;16.17;8.75;;;;;;;10.34;70.39;98367.69;4989471;28;20038;-82
2021/10/08 05:11:37;;;;;;;15.75;8.85;;;;;;;10.33;70.61;98372.09;4998036;28;20437;-81
2021/10/08 05:14:03;;;;;;;14.52;8.73;;;;;;;10.28;70.47;98362.31;4997043;28;20030;-83
2021/10/08 05:16:29;;;;;;;17.25;9.55;;;;;;;10.34;70.26;98365.09;4997235;28;20060;-83
2021/10/08 05:18:55;;;;;;;17.95;9.10;;;;;;;10.34;70.25;98367.69;5013984;28;20034;-83
2021/10/08 05:21:20;;;;;;;17.85;8.93;;;;;;;10.26;71.07;98356.53;4997611;28;20126;-82
2021/10/08 05:23:46;;;;;;;16.27;8.75;;;;;;;10.18;70.86;98363.75;4997081;28;20390;-82
2021/10/08 05:26:11;;;;;;;16.65;8.77;;;;;;;10.29;70.70;98363.88;4997196;28;20103;-82
2021/10/08 05:28:39;;;;;;;19.30;9.60;;;;;;;10.24;70.70;98360.31;4990150;28;20034;-82
2021/10/08 05:31:06;;;;;;;17.80;9.15;;;;;;;10.37;70.89;98369.88;4963195;28;20038;-82
2021/10/08 05:33:32;;;;;;;18.27;9.55;;;;;;;10.36;69.98;98368.28;4994163;28;20026;-82
2021/10/08 05:35:57;;;;;;;17.38;9.25;;;;;;;10.36;70.53;98365.69;5004875;28;20033;-82
2021/10/08 05:38:23;;;;;;;16.35;8.68;;;;;;;10.31;70.43;98371.47;4981528;28;20034;-82
2021/10/08 05:40:48;;;;;;;17.33;9.48;;;;;;;10.23;70.81;98369.13;4997657;28;20385;-82
2021/10/08 05:43:17;;;;;;;16.38;9.02;;;;;;;10.10;70.73;98377.84;4996143;28;20032;-83
2021/10/08 05:45:42;;;;;;;17.50;9.90;;;;;;;10.23;70.50;98377.75;4962789;28;20029;-82
2021/10/08 05:48:07;;;;;;;19.15;10.30;;;;;;;10.22;70.44;98370.94;4993302;28;20108;-82
2021/10/08 05:50:33;;;;;;;18.20;9.32;;;;;;;10.24;70.65;98365.53;4995266;28;20033;-82
2021/10/08 05:52:58;;;;;;;15.80;9.57;;;;;;;10.19;70.74;98373.97;4996606;28;20466;-83
2021/10/08 05:55:24;;;;;;;15.82;9.73;;;;;;;10.21;71.03;98374.56;4978690;28;20033;-83
2021/10/08 05:57:49;;;;;;;18.25;9.73;;;;;;;10.14;71.02;98366.00;5013136;28;20026;-82
2021/10/08 06:00:15;;;;;;;16.85;9.43;;;;;;;10.14;71.00;98376.41;5012662;28;20059;-84
2021/10/08 06:02:41;;;;;;;18.17;9.63;;;;;;;10.02;71.33;98371.09;4993846;28;20026;-83
2021/10/08 06:05:07;;;;;;;19.27;10.02;;;;;;;10.01;71.28;98376.53;4996971;28;20429;-83
2021/10/08 06:07:32;;;;;;;21.85;10.27;;;;;;;9.96;71.48;98373.75;5012651;28;20033;-83
2021/10/08 06:09:57;;;;;;;20.90;10.80;;;;;;;9.99;72.02;98370.72;4995398;28;20030;-84
2021/10/08 06:12:23;;;;;;;20.75;10.68;;;;;;;9.93;71.73;98382.75;4971037;28;20129;-83
2021/10/08 06:14:48;;;;;;;20.52;10.85;;;;;;;9.93;72.10;98391.34;4960729;28;20037;-82
2021/10/08 06:17:13;;;;;;;20.23;10.15;;;;;;;9.91;72.41;98377.78;4993856;28;20030;-83
2021/10/08 06:19:40;;;;;;;23.00;11.63;;;;;;;10.03;71.93;98382.31;4977041;28;20052;-83
2021/10/08 06:22:06;;;;;;;21.83;11.55;;;;;;;10.06;72.62;98384.50;4993071;28;20682;-83
2021/10/08 06:24:32;;;;;;;22.38;11.02;;;;;;;10.26;71.48;98379.94;4977253;28;20038;-83
2021/10/08 06:26:57;;;;;;;23.98;11.38;;;;;;;10.38;71.46;98392.28;4993664;28;20038;-83
2021/10/08 06:29:23;;;;;;;22.25;10.85;;;;;;;10.44;71.09;98386.25;5007322;28;20042;-83
2021/10/08 06:31:48;;;;;;;22.60;11.30;;;;;;;10.46;71.21;98384.22;4992909;28;20056;-83
2021/10/08 06:34:13;;;;;;;21.30;11.05;;;;;;;10.46;71.44;98379.78;4992317;28;20037;-83
2021/10/08 06:36:39;;;;;;;24.88;11.82;;;;;;;10.40;71.69;98393.69;4976271;28;20044;-83
2021/10/08 06:39:05;;;;;;;20.85;11.05;;;;;;;10.47;71.35;98386.59;4990074;28;20029;-82
2021/10/08 06:41:30;;;;;;;19.95;11.70;;;;;;;10.58;71.42;98392.13;5003751;28;20042;-83
2021/10/08 06:43:56;;;;;;;20.23;11.60;;;;;;;10.60;71.57;98396.09;5005318;28;20114;-84
2021/10/08 06:46:21;;;;;;;22.20;12.10;;;;;;;10.62;71.41;98391.47;4976621;28;20117;-84
2021/10/08 06:48:47;;;;;;;21.38;11.98;;;;;;;10.70;71.04;98394.84;5008459;28;20113;-82
2021/10/08 06:51:12;;;;;;;21.95;11.80;;;;;;;10.61;71.81;98391.72;4990879;28;20442;-84
2021/10/08 06:53:37;;;;;;;20.45;11.35;;;;;;;10.82;71.29;98387.91;4986965;28;20038;-84
2021/10/08 06:56:03;;;;;;;21.30;10.25;;;;;;;10.82;71.38;98387.91;4992716;28;20123;-83
2021/10/08 06:58:28;;;;;;;16.65;9.80;;;;;;;10.97;71.01;98385.75;4976654;28;20435;-84
2021/10/08 07:00:55;;;;;;;20.20;11.18;;;;;;;11.06;70.71;98387.03;4976438;28;20466;-84
2021/10/08 07:03:21;;;;;;;18.88;11.63;;;;;;;11.00;70.88;98390.53;5008700;28;20037;-83
2021/10/08 07:05:47;;;;;;;17.92;9.95;;;;;;;11.20;70.80;98392.88;4983524;28;20021;-84
2021/10/08 07:08:12;;;;;;;17.38;10.90;;;;;;;11.25;70.46;98389.63;4989103;28;20030;-83
2021/10/08 07:10:39;;;;;;;18.85;11.05;;;;;;;11.34;70.68;98388.31;4990732;28;20080;-83
2021/10/08 07:13:05;;;;;;;15.68;9.38;;;;;;;11.49;70.20;98389.75;4956327;28;20034;-83
2021/10/08 07:15:30;;;;;;;17.77;10.23;;;;;;;11.61;69.96;98380.19;4990224;28;20045;-83
2021/10/08 07:17:56;;;;;;;15.15;8.93;;;;;;;11.59;69.90;98390.03;4972599;28;20030;-83
2021/10/08 07:20:24;;;;;;;16.23;8.65;;;;;;;11.61;70.06;98388.78;4988758;28;20031;-82
2021/10/08 07:22:50;;;;;;;15.07;9.98;;;;;;;11.73;69.95;98388.06;4978634;28;20111;-83
2021/10/08 07:25:15;;;;;;;13.45;8.88;;;;;;;11.80;69.93;98388.75;4992541;28;20521;-83
2021/10/08 07:27:42;;;;;;;16.77;8.63;;;;;;;11.75;70.07;98381.56;4993115;28;20075;-83
2021/10/08 07:30:08;;;;;;;16.58;8.93;;;;;;;12.00;69.31;98385.91;4992383;28;20180;-84
2021/10/08 07:32:34;;;;;;;13.93;8.55;;;;;;;11.94;69.97;98384.16;5007056;28;20037;-85
2021/10/08 07:34:59;;;;;;;12.73;8.30;;;;;;;12.10;69.57;98393.97;4988973;28;20030;-83
2021/10/08 07:37:25;;;;;;;14.55;7.80;;;;;;;12.08;69.51;98390.81;4972263;28;20113;-84
2021/10/08 07:39:50;;;;;;;12.85;7.72;;;;;;;12.11;69.32;98389.53;4988732;28;20035;-84
2021/10/08 07:42:15;;;;;;;13.15;8.70;;;;;;;12.43;69.06;98397.09;4994852;28;20036;-83
2021/10/08 07:44:41;;;;;;;14.07;8.80;;;;;;;12.66;68.39;98397.13;4969729;28;20026;-83
2021/10/08 07:47:07;;;;;;;11.70;8.00;;;;;;;12.83;67.51;98391.19;4984098;28;20038;-83
2021/10/08 07:49:32;;;;;;;10.70;7.20;;;;;;;12.92;67.38;98405.53;4982493;28;20026;-83
2021/10/08 07:51:57;;;;;;;11.00;6.70;;;;;;;12.80;67.60;98408.13;4982679;28;20034;-83
2021/10/08 07:54:23;;;;;;;10.77;6.60;;;;;;;12.91;67.27;98396.88;4997591;28;20453;-82
2021/10/08 07:56:48;;;;;;;10.15;6.88;;;;;;;13.06;67.28;98393.00;4998513;28;20042;-84
2021/10/08 07:59:14;;;;;;;10.05;6.45;;;;;;;13.16;67.01;98395.81;4993150;28;20365;-83
2021/10/08 08:01:39;;;;;;;9.13;6.30;;;;;;;13.16;66.80;98392.38;4981505;28;20034;-82
2021/10/08 08:04:04;;;;;;;9.95;5.97;;;;;;;13.22;66.55;98399.31;4985101;28;20033;-83
2021/10/08 08:06:30;;;;;;;8.98;6.22;;;;;;;13.09;67.13;98389.91;5001278;28;20381;-82
2021/10/08 08:08:55;;;;;;;8.85;6.03;;;;;;;13.34;66.96;98401.94;5002960;28;20084;-82
2021/10/08 08:11:20;;;;;;;9.45;6.45;;;;;;;13.47;66.54;98406.91;4986282;28;20038;-84
2021/10/08 08:13:46;;;;;;;11.15;6.07;;;;;;;13.74;65.77;98407.13;4986323;28;20081;-84
2021/10/08 08:16:11;;;;;;;7.65;4.97;;;;;;;13.82;65.53;98408.59;4980883;28;20113;-83
2021/10/08 08:18:37;;;;;;;8.48;5.55;;;;;;;13.90;65.22;98405.59;5000618;28;20065;-84
2021/10/08 08:21:03;;;;;;;9.38;5.60;;;;;;;13.98;64.71;98404.41;4976441;28;20061;-83
2021/10/08 08:23:28;;;;;;;7.90;5.00;;;;;;;14.01;65.06;98396.88;4987156;28;20403;-83
2021/10/08 08:25:55;;;;;;;8.23;4.50;;;;;;;14.04;65.17;98398.25;4984081;28;20111;-84
2021/10/08 08:28:21;;;;;;;7.20;4.35;;;;;;;14.22;64.58;98405.06;4971931;28;20064;-82
2021/10/08 08:30:46;;;;;;;6.50;4.78;;;;;;;14.32;64.52;98407.06;4968750;28;20121;-82
2021/10/08 08:33:12;;;;;;;6.38;4.60;;;;;;;14.29;64.46;98410.16;5001986;28;20168;-82
2021/10/08 08:35:38;;;;;;;6.88;4.68;;;;;;;14.34;64.20;98411.06;4972118;28;20413;-83
2021/10/08 08:38:03;;;;;;;6.07;4.50;;;;;;;14.19;64.32;98408.19;4968279;28;20028;-82
2021/10/08 08:40:29;;;;;;;6.30;4.75;;;;;;;14.23;64.49;98404.06;4983182;28;20032;-82
2021/10/08 08:42:58;;;;;;;6.68;5.13;;;;;;;14.30;64.34;98409.94;5000049;28;20033;-83
2021/10/08 08:45:25;;;;;;;6.70;4.38;;;;;;;14.41;63.85;98405.63;4984586;28;20040;-82
2021/10/08 08:48:02;;;;;;;6.53;4.30;;;;;;;14.55;63.60;98408.75;4985520;28;20057;-83
2021/10/08 08:50:29;;;;;;;5.38;4.32;;;;;;;14.82;63.84;98406.28;4982653;28;20093;-82
2021/10/08 08:52:54;;;;;;;5.15;3.92;;;;;;;14.94;62.82;98404.34;5002234;28;20034;-82
2021/10/08 08:55:20;;;;;;;5.47;4.88;;;;;;;14.70;63.24;98409.00;4966056;28;20109;-83
2021/10/08 08:57:46;;;;;;;6.38;4.57;;;;;;;14.91;63.11;98404.06;4992453;28;20398;-83
2021/10/08 09:00:13;;;;;;;5.38;3.92;;;;;;;14.77;62.65;98407.00;4975959;28;20026;-82
2021/10/08 09:02:40;;;;;;;4.10;3.60;;;;;;;14.89;62.82;98406.09;4976689;28;20029;-83
2021/10/08 09:05:15;;;;;;;5.70;3.72;;;;;;;14.77;63.36;98398.31;5009444;28;20068;-82
2021/10/08 09:07:40;;;;;;;4.97;3.70;;;;;;;15.09;62.96;98403.75;4996312;28;20029;-82
2021/10/08 09:10:20;;;;;;;4.75;3.80;;;;;;;15.03;63.00;98406.53;4993424;28;20452;-84
2021/10/08 09:12:49;;;;;;;4.95;3.38;;;;;;;15.20;61.89;98407.31;4972668;28;20509;-82
2021/10/08 09:15:16;;;;;;;4.43;3.30;;;;;;;15.41;61.72;98408.34;4967996;28;20383;-82
2021/10/08 09:17:42;;;;;;;3.75;3.33;;;;;;;15.58;62.16;98399.59;4985053;28;20477;-83
2021/10/08 09:20:25;;;;;;;5.90;3.53;;;;;;;15.17;61.93;98398.09;4971042;28;20036;-83
2021/10/08 09:22:52;;;;;;;5.20;4.28;;;;;;;15.36;60.91;98395.16;4983717;28;20034;-83
2021/10/08 09:25:20;;;;;;;3.47;3.17;;;;;;;15.85;60.88;98384.69;4999099;28;20081;-83
2021/10/08 09:27:49;;;;;;;4.13;3.25;;;;;;;15.97;59.99;98399.47;4998058;28;20109;-82
2021/10/08 09:30:14;;;;;;;4.35;3.35;;;;;;;16.33;59.29;98392.69;4965968;28;20033;-84
2021/10/08 09:32:42;;;;;;;3.92;3.15;;;;;;;16.35;59.21;98392.41;4999947;28;20181;-82
2021/10/08 09:35:09;;;;;;;4.25;2.97;;;;;;;16.60;58.65;98376.81;4996950;28;20112;-84
2021/10/08 09:37:35;;;;;;;4.63;2.88;;;;;;;16.87;57.77;98383.84;4963508;28;20029;-82
2021/10/08 09:40:01;;;;;;;3.85;2.63;;;;;;;17.05;57.66;98382.66;4978863;28;20101;-82
2021/10/08 09:42:34;;;;;;;4.60;3.08;;;;;;;17.12;56.98;98387.66;4985804;28;20034;-83
2021/10/08 09:45:01;;;;;;;4.38;3.03;;;;;;;17.23;56.57;98384.03;4992822;28;20551;-82
2021/10/08 09:47:27;;;;;;;4.22;3.10;;;;;;;17.27;56.40;98385.06;4976845;28;20029;-82
2021/10/08 09:50:06;;;;;;;5.40;3.15;;;;;;;17.46;55.78;98381.97;4976773;28;20037;-81
2021/10/08 09:52:32;;;;;;;3.17;2.90;;;;;;;18.06;55.75;98380.53;5008590;28;20493;-83
2021/10/08 09:55:06;;;;;;;3.13;2.83;;;;;;;18.22;54.26;98373.41;4992999;28;20092;-84
2021/10/08 09:57:47;;;;;;;4.65;2.80;;;;;;;18.25;55.16;98378.16;4992918;28;20393;-84
2021/10/08 10:00:35;;;;;;;5.03;3.15;;;;;;;18.57;54.07;98377.06;4981298;28;20065;-83
2021/10/08 10:03:01;;;;;;;3.30;2.58;;;;;;;18.12;53.39;98383.97;4995723;28;20509;-82
2021/10/08 10:05:28;;;;;;;3.58;2.53;;;;;;;18.38;53.88;98371.56;4989620;28;20038;-82
2021/10/08 10:07:54;;;;;;;3.28;2.72;;;;;;;18.20;53.18;98369.44;5009464;28;20382;-82
2021/10/08 10:10:20;;;;;;;3.88;2.58;;;;;;;18.18;53.64;98374.19;4972764;28;20165;-82
2021/10/08 10:12:46;;;;;;;3.30;2.83;;;;;;;17.97;52.64;98371.56;4971314;28;20553;-82
2021/10/08 10:15:13;;;;;;;3.90;2.50;;;;;;;18.01;54.00;98367.38;4986825;28;20568;-82
2021/10/08 10:17:39;;;;;;;3.22;2.60;;;;;;;18.22;53.66;98368.16;5008270;28;20127;-82
2021/10/08 10:20:07;;;;;;;3.00;2.70;;;;;;;18.37;53.48;98370.00;5007911;28;20070;-82
2021/10/08 10:22:33;;;;;;;2.72;2.50;;;;;;;18.56;53.38;98375.50;4991268;28;20125;-82
2021/10/08 10:24:58;;;;;;;2.83;2.47;;;;;;;18.27;52.70;98367.38;5007754;28;20427;-83
2021/10/08 10:27:23;;;;;;;2.67;2.47;;;;;;;18.16;52.36;98369.19;5006234;28;20152;-81
2021/10/08 10:29:49;;;;;;;4.68;2.40;;;;;;;18.51;52.96;98363.09;4992409;28;20394;-83
2021/10/08 10:32:15;;;;;;;3.17;2.83;;;;;;;18.48;52.38;98376.81;4970369;28;20038;-81
2021/10/08 10:34:40;;;;;;;3.25;2.95;;;;;;;18.50;52.31;98369.41;5007851;28;20041;-82
2021/10/08 10:37:08;;;;;;;4.55;2.78;;;;;;;18.53;52.36;98376.81;5006737;28;20161;-81
2021/10/08 10:39:33;;;;;;;4.20;2.92;;;;;;;18.17;53.12;98375.28;4991369;28;20109;-82
2021/10/08 10:42:13;;;;;;;2.60;2.40;;;;;;;18.48;53.06;98366.25;4990638;28;20229;-83
2021/10/08 10:44:40;;;;;;;4.05;2.47;;;;;;;19.03;52.29;98369.06;5007519;28;20041;-83
2021/10/08 10:47:19;;;;;;;4.80;2.70;;;;;;;18.48;53.08;98362.84;5007466;28;20026;-82
2021/10/08 10:52:12;;;;;;;3.92;2.60;;;;;;;18.97;51.00;98364.06;5007121;28;20486;-83
2021/10/08 10:54:37;;;;;;;3.85;3.00;;;;;;;19.26;50.62;98372.13;4991416;28;20038;-81
2021/10/08 10:57:11;;;;;;;2.95;2.60;;;;;;;18.85;50.59;98370.44;4991230;28;20473;-82
2021/10/08 10:59:38;;;;;;;3.33;3.00;;;;;;;18.80;50.86;98361.69;4971769;28;20030;-82
2021/10/08 11:02:10;;;;;;;4.72;3.20;;;;;;;18.63;50.82;98357.53;4971366;28;20026;-82
2021/10/08 11:04:40;;;;;;;3.25;2.95;;;;;;;18.44;50.84;98357.31;4955809;28;20136;-83
2021/10/08 11:07:07;;;;;;;3.08;2.78;;;;;;;18.43;51.60;98353.09;5012715;28;20063;-81
2021/10/08 11:09:33;;;;;;;4.25;2.83;;;;;;;18.66;50.46;98350.94;5013063;28;20097;-83
2021/10/08 11:12:30;;;;;;;3.55;3.13;;;;;;;18.57;50.99;98357.81;4990802;28;20084;-82
2021/10/08 11:15:20;;;;;;;2.75;2.50;;;;;;;19.13;50.58;98355.03;4990571;28;20121;-81
2021/10/08 11:17:46;;;;;;;3.33;2.58;;;;;;;19.55;50.34;98360.88;5007381;28;20386;-81
2021/10/08 11:20:43;;;;;;;3.10;2.80;;;;;;;20.24;48.40;98342.41;5007145;28;20025;-84
2021/10/08 11:23:32;;;;;;;2.83;2.63;;;;;;;19.73;48.61;98346.25;4987374;28;20559;-81
2021/10/08 11:26:04;;;;;;;4.80;3.60;;;;;;;18.93;49.54;98349.84;4955613;28;20081;-83
2021/10/08 11:28:35;;;;;;;3.92;3.45;;;;;;;18.92;50.70;98345.59;4987272;28;20447;-81
2021/10/08 11:31:01;;;;;;;4.63;3.80;;;;;;;18.66;50.81;98346.47;4988100;28;20109;-82
2021/10/08 11:33:35;;;;;;;4.75;3.70;;;;;;;18.37;50.78;98354.16;4955407;28;20161;-80